Oconto, Nebraska
Current Conditions -  °F | °C
As of 4:53 PM on Tuesday 27 Jan 2015 (Local Time) from KBBW Reporting Station
Clear Clear  
Wind Chill: 67°   Ceiling: Unl
Heat Index: 67°   Visibility: 10mi
Dew Point: 36°   Wind: 6mph
Humidity: 32%   Direction: 130°SE
Pressure: 29.91"   Gusts: NA
Location:  41.14°N, 99.76°W
Report Text: KBBW 272253Z AUTO 13005KT 10SM CLR 19/02 A2991 RMK AO2 SLP130 T01940022
Loading
Personal Weather Stations






























Interactive Weather Map New forecast layout! Learn more

10-Day Weather Forecast

Advertisements
Track Severe Weather on mobile